sensor_id;sensor_type;location;lat;lon;timestamp;temperature;humidity
62991;DHT22;49084;48.204;16.202;2023-07-30T13:25:31;35.60;56.50
62991;DHT22;49084;48.204;16.202;2023-07-30T13:27:58;35.80;55.80
62991;DHT22;49084;48.204;16.202;2023-07-30T13:30:25;35.60;54.50
62991;DHT22;49084;48.204;16.202;2023-07-30T13:32:52;36.30;54.00
62991;DHT22;49084;48.204;16.202;2023-07-30T13:35:18;36.10;52.60
62991;DHT22;49084;48.204;16.202;2023-07-30T13:37:44;35.10;53.70
62991;DHT22;49084;48.204;16.202;2023-07-30T13:40:11;35.00;54.00
62991;DHT22;49084;48.204;16.202;2023-07-30T13:42:37;34.20;55.40
62991;DHT22;49084;48.204;16.202;2023-07-30T13:45:04;34.00;56.10
62991;DHT22;49084;48.204;16.202;2023-07-30T13:47:30;33.30;57.00
62991;DHT22;49084;48.204;16.202;2023-07-30T13:49:57;32.30;58.40
62991;DHT22;49084;48.204;16.202;2023-07-30T13:52:23;31.40;60.20
62991;DHT22;49084;48.204;16.202;2023-07-30T13:54:49;30.50;61.20
62991;DHT22;49084;48.204;16.202;2023-07-30T13:57:25;29.90;62.50
62991;DHT22;49084;48.204;16.202;2023-07-30T13:59:52;29.30;64.20
62991;DHT22;49084;48.204;16.202;2023-07-30T14:02:19;28.80;66.20
62991;DHT22;49084;48.204;16.202;2023-07-30T14:04:45;28.60;66.40
62991;DHT22;49084;48.204;16.202;2023-07-30T14:07:11;28.30;67.90
62991;DHT22;49084;48.204;16.202;2023-07-30T14:09:38;28.10;69.10
62991;DHT22;49084;48.204;16.202;2023-07-30T14:12:04;27.90;70.20
62991;DHT22;49084;48.204;16.202;2023-07-30T14:14:31;27.60;73.00
62991;DHT22;49084;48.204;16.202;2023-07-30T14:16:57;27.30;73.50
62991;DHT22;49084;48.204;16.202;2023-07-30T14:19:24;26.60;75.90
62991;DHT22;49084;48.204;16.202;2023-07-30T14:21:50;26.00;79.70
62991;DHT22;49084;48.204;16.202;2023-07-30T14:24:17;25.00;90.20
62991;DHT22;49084;48.204;16.202;2023-07-30T14:26:42;23.80;94.00
62991;DHT22;49084;48.204;16.202;2023-07-30T14:29:08;22.90;99.90
62991;DHT22;49084;48.204;16.202;2023-07-30T14:31:34;22.20;99.90
62991;DHT22;49084;48.204;16.202;2023-07-30T14:34:00;21.80;99.90
62991;DHT22;49084;48.204;16.202;2023-07-30T14:36:26;21.50;99.90
62991;DHT22;49084;48.204;16.202;2023-07-30T14:38:51;21.10;99.90
62991;DHT22;49084;48.204;16.202;2023-07-30T14:41:17;20.90;99.90
62991;DHT22;49084;48.204;16.202;2023-07-30T14:43:43;20.70;99.90
62991;DHT22;49084;48.204;16.202;2023-07-30T14:46:09;20.40;99.90
62991;DHT22;49084;48.204;16.202;2023-07-30T14:48:40;20.00;99.90
62991;DHT22;49084;48.204;16.202;2023-07-30T14:51:07;19.80;99.90
62991;DHT22;49084;48.204;16.202;2023-07-30T14:53:33;19.50;99.90
62991;DHT22;49084;48.204;16.202;2023-07-30T14:55:59;19.50;99.90
62991;DHT22;49084;48.204;16.202;2023-07-30T14:58:25;19.40;99.90
62991;DHT22;49084;48.204;16.202;2023-07-30T15:00:51;19.60;99.90
62991;DHT22;49084;48.204;16.202;2023-07-30T15:03:17;19.60;99.90
62991;DHT22;49084;48.204;16.202;2023-07-30T15:05:44;19.60;99.90
62991;DHT22;49084;48.204;16.202;2023-07-30T15:08:10;19.60;99.90
62991;DHT22;49084;48.204;16.202;2023-07-30T15:10:36;19.70;99.90
62991;DHT22;49084;48.204;16.202;2023-07-30T15:13:02;19.80;99.90
62991;DHT22;49084;48.204;16.202;2023-07-30T15:15:28;20.10;99.90
62991;DHT22;49084;48.204;16.202;2023-07-30T15:17:54;20.10;99.90
62991;DHT22;49084;48.204;16.202;2023-07-30T15:20:20;20.20;99.90
62991;DHT22;49084;48.204;16.202;2023-07-30T15:22:46;20.20;99.90
62991;DHT22;49084;48.204;16.202;2023-07-30T15:25:12;20.30;99.90
62991;DHT22;49084;48.204;16.202;2023-07-30T15:27:38;20.30;99.90
62991;DHT22;49084;48.204;16.202;2023-07-30T15:30:05;20.30;99.90
62991;DHT22;49084;48.204;16.202;2023-07-30T15:32:31;20.20;99.90
62991;DHT22;49084;48.204;16.202;2023-07-30T15:34:59;20.10;99.90
62991;DHT22;49084;48.204;16.202;2023-07-30T15:37:25;20.00;99.90
62991;DHT22;49084;48.204;16.202;2023-07-30T15:39:51;19.90;99.90
62991;DHT22;49084;48.204;16.202;2023-07-30T15:42:17;19.80;99.90
62991;DHT22;49084;48.204;16.202;2023-07-30T15:44:44;19.60;99.90
62991;DHT22;49084;48.204;16.202;2023-07-30T15:47:10;19.40;99.90
62991;DHT22;49084;48.204;16.202;2023-07-30T15:49:37;19.20;99.90
62991;DHT22;49084;48.204;16.202;2023-07-30T15:52:04;19.20;99.90
62991;DHT22;49084;48.204;16.202;2023-07-30T15:54:37;19.30;99.90
62991;DHT22;49084;48.204;16.202;2023-07-30T15:57:05;19.20;99.90
62991;DHT22;49084;48.204;16.202;2023-07-30T15:59:37;19.10;99.90
62991;DHT22;49084;48.204;16.202;2023-07-30T16:02:03;19.30;99.90
62991;DHT22;49084;48.204;16.202;2023-07-30T16:04:33;19.50;99.90
62991;DHT22;49084;48.204;16.202;2023-07-30T16:06:59;19.50;99.90
62991;DHT22;49084;48.204;16.202;2023-07-30T16:09:26;19.50;99.90
62991;DHT22;49084;48.204;16.202;2023-07-30T16:11:53;19.40;99.90
62991;DHT22;49084;48.204;16.202;2023-07-30T16:14:19;19.40;99.90
62991;DHT22;49084;48.204;16.202;2023-07-30T16:16:48;19.30;99.90
62991;DHT22;49084;48.204;16.202;2023-07-30T16:19:15;19.20;99.90
62991;DHT22;49084;48.204;16.202;2023-07-30T16:21:43;19.20;99.90
62991;DHT22;49084;48.204;16.202;2023-07-30T16:24:15;19.20;99.90
62991;DHT22;49084;48.204;16.202;2023-07-30T16:26:41;19.20;99.90
62991;DHT22;49084;48.204;16.202;2023-07-30T16:29:08;19.20;99.90
62991;DHT22;49084;48.204;16.202;2023-07-30T16:31:34;19.20;99.90
62991;DHT22;49084;48.204;16.202;2023-07-30T16:34:01;19.30;99.90
62991;DHT22;49084;48.204;16.202;2023-07-30T16:36:28;19.30;99.90
62991;DHT22;49084;48.204;16.202;2023-07-30T16:38:55;19.40;99.90
62991;DHT22;49084;48.204;16.202;2023-07-30T16:41:22;19.50;99.90
62991;DHT22;49084;48.204;16.202;2023-07-30T16:43:49;19.50;99.90
62991;DHT22;49084;48.204;16.202;2023-07-30T16:46:15;19.70;99.90
62991;DHT22;49084;48.204;16.202;2023-07-30T16:48:41;19.80;99.90
62991;DHT22;49084;48.204;16.202;2023-07-30T16:51:07;19.90;99.90
62991;DHT22;49084;48.204;16.202;2023-07-30T16:53:34;20.10;99.90
62991;DHT22;49084;48.204;16.202;2023-07-30T16:56:11;20.20;99.90
62991;DHT22;49084;48.204;16.202;2023-07-30T16:58:38;20.30;99.90
62991;DHT22;49084;48.204;16.202;2023-07-30T17:01:05;20.40;99.90
62991;DHT22;49084;48.204;16.202;2023-07-30T17:03:33;20.50;99.90
62991;DHT22;49084;48.204;16.202;2023-07-30T17:06:00;20.60;99.90
62991;DHT22;49084;48.204;16.202;2023-07-30T17:08:27;20.50;99.90
62991;DHT22;49084;48.204;16.202;2023-07-30T17:10:54;20.50;99.90
62991;DHT22;49084;48.204;16.202;2023-07-30T17:13:21;20.50;99.90
62991;DHT22;49084;48.204;16.202;2023-07-30T17:15:48;20.50;99.90
62991;DHT22;49084;48.204;16.202;2023-07-30T17:18:14;20.40;99.90
62991;DHT22;49084;48.204;16.202;2023-07-30T17:20:55;20.50;99.90
62991;DHT22;49084;48.204;16.202;2023-07-30T17:23:23;20.50;99.90
62991;DHT22;49084;48.204;16.202;2023-07-30T17:25:53;20.40;99.90
62991;DHT22;49084;48.204;16.202;2023-07-30T17:28:20;20.40;99.90
62991;DHT22;49084;48.204;16.202;2023-07-30T17:30:46;20.40;99.90
62991;DHT22;49084;48.204;16.202;2023-07-30T17:33:13;20.40;99.90
62991;DHT22;49084;48.204;16.202;2023-07-30T17:35:39;20.40;99.90
62991;DHT22;49084;48.204;16.202;2023-07-30T17:38:05;20.30;99.90
62991;DHT22;49084;48.204;16.202;2023-07-30T17:40:32;20.20;99.90
62991;DHT22;49084;48.204;16.202;2023-07-30T17:42:58;20.20;99.90
62991;DHT22;49084;48.204;16.202;2023-07-30T17:45:24;20.10;99.90
62991;DHT22;49084;48.204;16.202;2023-07-30T17:47:51;20.00;99.90
62991;DHT22;49084;48.204;16.202;2023-07-30T17:50:17;19.90;99.90
62991;DHT22;49084;48.204;16.202;2023-07-30T17:52:43;19.80;99.90
62991;DHT22;49084;48.204;16.202;2023-07-30T17:55:10;19.70;99.90
62991;DHT22;49084;48.204;16.202;2023-07-30T17:57:37;19.70;99.90
62991;DHT22;49084;48.204;16.202;2023-07-30T18:00:05;19.50;99.90
62991;DHT22;49084;48.204;16.202;2023-07-30T18:02:32;19.40;99.90
62991;DHT22;49084;48.204;16.202;2023-07-30T18:04:59;19.30;99.90
62991;DHT22;49084;48.204;16.202;2023-07-30T18:07:25;19.10;99.90
62991;DHT22;49084;48.204;16.202;2023-07-30T18:09:51;19.00;99.90
62991;DHT22;49084;48.204;16.202;2023-07-30T18:12:18;18.90;99.90
62991;DHT22;49084;48.204;16.202;2023-07-30T18:14:45;18.80;99.90
62991;DHT22;49084;48.204;16.202;2023-07-30T18:17:11;18.70;99.90
62991;DHT22;49084;48.204;16.202;2023-07-30T18:19:37;18.60;99.90
62991;DHT22;49084;48.204;16.202;2023-07-30T18:22:04;18.50;99.90
62991;DHT22;49084;48.204;16.202;2023-07-30T18:24:32;18.40;99.90
62991;DHT22;49084;48.204;16.202;2023-07-30T18:26:58;18.30;99.90
62991;DHT22;49084;48.204;16.202;2023-07-30T18:29:25;18.30;99.90
62991;DHT22;49084;48.204;16.202;2023-07-30T18:31:52;18.20;99.90
62991;DHT22;49084;48.204;16.202;2023-07-30T18:34:29;18.10;99.90
62991;DHT22;49084;48.204;16.202;2023-07-30T18:36:56;18.00;99.90
62991;DHT22;49084;48.204;16.202;2023-07-30T18:39:22;17.90;99.90
62991;DHT22;49084;48.204;16.202;2023-07-30T18:41:48;17.80;99.90
62991;DHT22;49084;48.204;16.202;2023-07-30T18:44:17;17.80;99.90
62991;DHT22;49084;48.204;16.202;2023-07-30T18:46:44;17.60;99.90
62991;DHT22;49084;48.204;16.202;2023-07-30T18:49:11;17.60;99.90
62991;DHT22;49084;48.204;16.202;2023-07-30T18:51:37;17.50;99.90
62991;DHT22;49084;48.204;16.202;2023-07-30T18:54:04;17.50;99.90
62991;DHT22;49084;48.204;16.202;2023-07-30T18:56:30;17.50;99.90
62991;DHT22;49084;48.204;16.202;2023-07-30T18:58:57;17.50;99.90
62991;DHT22;49084;48.204;16.202;2023-07-30T19:01:23;17.50;99.90
62991;DHT22;49084;48.204;16.202;2023-07-30T19:03:52;17.40;99.90
62991;DHT22;49084;48.204;16.202;2023-07-30T19:06:20;17.40;99.90
62991;DHT22;49084;48.204;16.202;2023-07-30T19:08:46;17.40;99.90
62991;DHT22;49084;48.204;16.202;2023-07-30T19:11:14;17.30;99.90
62991;DHT22;49084;48.204;16.202;2023-07-30T19:13:40;17.30;99.90
62991;DHT22;49084;48.204;16.202;2023-07-30T19:16:07;17.30;99.90
62991;DHT22;49084;48.204;16.202;2023-07-30T19:18:33;17.40;99.90
62991;DHT22;49084;48.204;16.202;2023-07-30T19:20:59;17.40;99.90
62991;DHT22;49084;48.204;16.202;2023-07-30T19:23:25;17.30;99.90
62991;DHT22;49084;48.204;16.202;2023-07-30T19:25:54;17.30;99.90
62991;DHT22;49084;48.204;16.202;2023-07-30T19:28:20;17.30;99.90
62991;DHT22;49084;48.204;16.202;2023-07-30T19:30:47;17.30;99.90
62991;DHT22;49084;48.204;16.202;2023-07-30T19:33:14;17.30;99.90
62991;DHT22;49084;48.204;16.202;2023-07-30T19:35:40;17.30;99.90
62991;DHT22;49084;48.204;16.202;2023-07-30T19:38:06;17.30;99.90
62991;DHT22;49084;48.204;16.202;2023-07-30T19:40:33;17.30;99.90
62991;DHT22;49084;48.204;16.202;2023-07-30T19:42:59;17.30;99.90
62991;DHT22;49084;48.204;16.202;2023-07-30T19:45:26;17.30;99.90
62991;DHT22;49084;48.204;16.202;2023-07-30T19:47:53;17.30;99.90
62991;DHT22;49084;48.204;16.202;2023-07-30T19:50:21;17.30;99.90
62991;DHT22;49084;48.204;16.202;2023-07-30T19:52:49;17.40;99.90
62991;DHT22;49084;48.204;16.202;2023-07-30T19:55:15;17.40;99.90
62991;DHT22;49084;48.204;16.202;2023-07-30T19:57:42;17.40;99.90
62991;DHT22;49084;48.204;16.202;2023-07-30T20:00:08;17.40;99.90
62991;DHT22;49084;48.204;16.202;2023-07-30T20:02:34;17.50;99.90
62991;DHT22;49084;48.204;16.202;2023-07-30T20:05:02;17.60;99.90
62991;DHT22;49084;48.204;16.202;2023-07-30T20:07:29;17.60;99.90
62991;DHT22;49084;48.204;16.202;2023-07-30T20:09:55;17.70;99.90
62991;DHT22;49084;48.204;16.202;2023-07-30T20:12:22;17.70;99.90
62991;DHT22;49084;48.204;16.202;2023-07-30T20:14:49;17.90;99.90
62991;DHT22;49084;48.204;16.202;2023-07-30T20:17:16;18.00;99.90
62991;DHT22;49084;48.204;16.202;2023-07-30T20:19:42;18.00;99.90
62991;DHT22;49084;48.204;16.202;2023-07-30T20:22:09;18.20;99.90
62991;DHT22;49084;48.204;16.202;2023-07-30T20:24:38;18.40;99.90
62991;DHT22;49084;48.204;16.202;2023-07-30T20:27:04;18.50;99.90
62991;DHT22;49084;48.204;16.202;2023-07-30T20:29:31;18.60;99.90
62991;DHT22;49084;48.204;16.202;2023-07-30T20:32:00;18.70;99.90
62991;DHT22;49084;48.204;16.202;2023-07-30T20:34:27;18.80;99.90
62991;DHT22;49084;48.204;16.202;2023-07-30T20:36:53;18.90;99.90
62991;DHT22;49084;48.204;16.202;2023-07-30T20:39:19;19.00;99.90
62991;DHT22;49084;48.204;16.202;2023-07-30T20:41:46;18.90;99.90
62991;DHT22;49084;48.204;16.202;2023-07-30T20:44:12;18.80;99.90
62991;DHT22;49084;48.204;16.202;2023-07-30T20:46:38;18.90;99.90
62991;DHT22;49084;48.204;16.202;2023-07-30T20:49:04;19.10;99.90
62991;DHT22;49084;48.204;16.202;2023-07-30T20:51:31;19.20;99.90
62991;DHT22;49084;48.204;16.202;2023-07-30T20:53:57;19.30;99.90
62991;DHT22;49084;48.204;16.202;2023-07-30T20:56:23;19.40;99.90
62991;DHT22;49084;48.204;16.202;2023-07-30T20:58:49;19.60;99.90
62991;DHT22;49084;48.204;16.202;2023-07-30T21:01:14;19.50;99.90
62991;DHT22;49084;48.204;16.202;2023-07-30T21:03:40;19.50;99.90
62991;DHT22;49084;48.204;16.202;2023-07-30T21:06:06;19.60;99.90
62991;DHT22;49084;48.204;16.202;2023-07-30T21:08:32;19.70;99.90
62991;DHT22;49084;48.204;16.202;2023-07-30T21:10:58;19.80;99.90
62991;DHT22;49084;48.204;16.202;2023-07-30T21:13:24;19.90;99.90
62991;DHT22;49084;48.204;16.202;2023-07-30T21:15:49;19.90;99.90
62991;DHT22;49084;48.204;16.202;2023-07-30T21:18:16;19.90;99.90
62991;DHT22;49084;48.204;16.202;2023-07-30T21:20:42;20.00;99.90
62991;DHT22;49084;48.204;16.202;2023-07-30T21:23:08;20.00;99.90
62991;DHT22;49084;48.204;16.202;2023-07-30T21:25:33;19.90;99.90
62991;DHT22;49084;48.204;16.202;2023-07-30T21:27:59;20.00;99.90
62991;DHT22;49084;48.204;16.202;2023-07-30T21:30:26;20.00;99.90
62991;DHT22;49084;48.204;16.202;2023-07-30T21:32:51;20.10;99.90
62991;DHT22;49084;48.204;16.202;2023-07-30T21:35:17;20.10;99.90
62991;DHT22;49084;48.204;16.202;2023-07-30T21:37:43;20.10;99.90
62991;DHT22;49084;48.204;16.202;2023-07-30T21:40:09;20.00;99.90
62991;DHT22;49084;48.204;16.202;2023-07-30T21:42:34;20.00;99.90
62991;DHT22;49084;48.204;16.202;2023-07-30T21:45:00;20.00;99.90
62991;DHT22;49084;48.204;16.202;2023-07-30T21:47:26;20.00;99.90
62991;DHT22;49084;48.204;16.202;2023-07-30T21:49:51;19.80;99.90
62991;DHT22;49084;48.204;16.202;2023-07-30T21:52:25;19.50;99.90
62991;DHT22;49084;48.204;16.202;2023-07-30T21:54:50;19.40;99.90
62991;DHT22;49084;48.204;16.202;2023-07-30T21:57:17;19.20;99.90
62991;DHT22;49084;48.204;16.202;2023-07-30T21:59:43;19.00;99.90
62991;DHT22;49084;48.204;16.202;2023-07-30T22:02:09;18.90;99.90
62991;DHT22;49084;48.204;16.202;2023-07-30T22:04:34;18.90;99.90
62991;DHT22;49084;48.204;16.202;2023-07-30T22:07:00;18.80;99.90
62991;DHT22;49084;48.204;16.202;2023-07-30T22:09:26;18.60;99.90
62991;DHT22;49084;48.204;16.202;2023-07-30T22:11:51;18.50;99.90
62991;DHT22;49084;48.204;16.202;2023-07-30T22:14:17;18.40;99.90
62991;DHT22;49084;48.204;16.202;2023-07-30T22:16:42;18.30;99.90
62991;DHT22;49084;48.204;16.202;2023-07-30T22:19:09;18.30;99.90
62991;DHT22;49084;48.204;16.202;2023-07-30T22:21:35;18.20;99.90
62991;DHT22;49084;48.204;16.202;2023-07-30T22:24:00;18.20;99.90
62991;DHT22;49084;48.204;16.202;2023-07-30T22:26:26;18.20;99.90
62991;DHT22;49084;48.204;16.202;2023-07-30T22:28:51;18.30;99.90
62991;DHT22;49084;48.204;16.202;2023-07-30T22:31:17;18.20;99.90
62991;DHT22;49084;48.204;16.202;2023-07-30T22:33:43;18.30;99.90
62991;DHT22;49084;48.204;16.202;2023-07-30T22:36:08;18.30;99.90
62991;DHT22;49084;48.204;16.202;2023-07-30T22:38:34;18.20;99.90
62991;DHT22;49084;48.204;16.202;2023-07-30T22:40:59;18.30;99.90
62991;DHT22;49084;48.204;16.202;2023-07-30T22:43:25;18.40;99.90
62991;DHT22;49084;48.204;16.202;2023-07-30T22:45:51;18.60;99.90
62991;DHT22;49084;48.204;16.202;2023-07-30T22:48:16;18.70;99.90
62991;DHT22;49084;48.204;16.202;2023-07-30T22:50:42;18.80;99.90
62991;DHT22;49084;48.204;16.202;2023-07-30T22:53:11;18.80;99.90
62991;DHT22;49084;48.204;16.202;2023-07-30T22:55:37;18.80;99.90
62991;DHT22;49084;48.204;16.202;2023-07-30T22:58:03;18.70;99.90
62991;DHT22;49084;48.204;16.202;2023-07-30T23:00:29;18.70;99.90
62991;DHT22;49084;48.204;16.202;2023-07-30T23:02:54;18.70;99.90
62991;DHT22;49084;48.204;16.202;2023-07-30T23:05:20;18.70;99.90
62991;DHT22;49084;48.204;16.202;2023-07-30T23:07:45;18.60;99.90
62991;DHT22;49084;48.204;16.202;2023-07-30T23:10:11;18.50;99.90
62991;DHT22;49084;48.204;16.202;2023-07-30T23:12:37;18.40;99.90
62991;DHT22;49084;48.204;16.202;2023-07-30T23:15:03;18.30;99.90
62991;DHT22;49084;48.204;16.202;2023-07-30T23:17:28;18.30;99.90
62991;DHT22;49084;48.204;16.202;2023-07-30T23:19:54;18.30;99.90
62991;DHT22;49084;48.204;16.202;2023-07-30T23:22:20;18.30;99.90
62991;DHT22;49084;48.204;16.202;2023-07-30T23:24:45;18.20;99.90
62991;DHT22;49084;48.204;16.202;2023-07-30T23:27:11;18.20;99.90
62991;DHT22;49084;48.204;16.202;2023-07-30T23:29:36;18.20;99.90
62991;DHT22;49084;48.204;16.202;2023-07-30T23:32:02;18.10;99.90
62991;DHT22;49084;48.204;16.202;2023-07-30T23:34:28;18.10;99.90
62991;DHT22;49084;48.204;16.202;2023-07-30T23:36:53;18.00;99.90
62991;DHT22;49084;48.204;16.202;2023-07-30T23:39:19;18.00;99.90
62991;DHT22;49084;48.204;16.202;2023-07-30T23:41:45;18.00;99.90
62991;DHT22;49084;48.204;16.202;2023-07-30T23:44:10;18.00;99.90
62991;DHT22;49084;48.204;16.202;2023-07-30T23:46:36;18.00;99.90
62991;DHT22;49084;48.204;16.202;2023-07-30T23:49:02;18.00;99.90
62991;DHT22;49084;48.204;16.202;2023-07-30T23:51:27;18.00;99.90
62991;DHT22;49084;48.204;16.202;2023-07-30T23:53:54;18.00;99.90
62991;DHT22;49084;48.204;16.202;2023-07-30T23:56:20;18.00;99.90
62991;DHT22;49084;48.204;16.202;2023-07-30T23:58:46;18.00;99.90
